sensor_id;sensor_type;location;lat;lon;timestamp;P1;durP1;ratioP1;P2;durP2;ratioP2
52564;SDS011;38460;53.106;7.004;2022-10-18T00:01:36;26.65;;;16.95;;
52564;SDS011;38460;53.106;7.004;2022-10-18T00:04:02;29.73;;;16.58;;
52564;SDS011;38460;53.106;7.004;2022-10-18T00:06:28;39.22;;;19.33;;
52564;SDS011;38460;53.106;7.004;2022-10-18T00:08:54;24.10;;;15.73;;
52564;SDS011;38460;53.106;7.004;2022-10-18T00:11:19;24.95;;;16.90;;
52564;SDS011;38460;53.106;7.004;2022-10-18T00:13:45;26.08;;;15.57;;
52564;SDS011;38460;53.106;7.004;2022-10-18T00:16:12;30.77;;;15.43;;
52564;SDS011;38460;53.106;7.004;2022-10-18T00:18:39;22.45;;;14.25;;
52564;SDS011;38460;53.106;7.004;2022-10-18T00:21:07;31.15;;;17.67;;
52564;SDS011;38460;53.106;7.004;2022-10-18T00:23:38;26.67;;;15.20;;
52564;SDS011;38460;53.106;7.004;2022-10-18T00:26:26;23.85;;;14.85;;
52564;SDS011;38460;53.106;7.004;2022-10-18T00:28:53;25.75;;;15.32;;
52564;SDS011;38460;53.106;7.004;2022-10-18T00:31:25;24.73;;;15.55;;
52564;SDS011;38460;53.106;7.004;2022-10-18T00:33:54;23.65;;;15.95;;
52564;SDS011;38460;53.106;7.004;2022-10-18T00:36:21;24.73;;;15.07;;
52564;SDS011;38460;53.106;7.004;2022-10-18T00:38:47;26.52;;;14.35;;
52564;SDS011;38460;53.106;7.004;2022-10-18T00:41:15;28.75;;;14.75;;
52564;SDS011;38460;53.106;7.004;2022-10-18T00:43:59;23.98;;;16.02;;
52564;SDS011;38460;53.106;7.004;2022-10-18T00:46:29;29.55;;;16.13;;
52564;SDS011;38460;53.106;7.004;2022-10-18T00:48:57;23.35;;;15.80;;
52564;SDS011;38460;53.106;7.004;2022-10-18T00:51:31;27.90;;;15.68;;
52564;SDS011;38460;53.106;7.004;2022-10-18T00:54:02;26.15;;;15.73;;
52564;SDS011;38460;53.106;7.004;2022-10-18T00:56:28;24.63;;;14.18;;
52564;SDS011;38460;53.106;7.004;2022-10-18T00:58:54;21.33;;;14.68;;
52564;SDS011;38460;53.106;7.004;2022-10-18T01:01:21;24.88;;;15.38;;
52564;SDS011;38460;53.106;7.004;2022-10-18T01:03:47;21.42;;;14.73;;
52564;SDS011;38460;53.106;7.004;2022-10-18T01:06:14;19.95;;;13.93;;
52564;SDS011;38460;53.106;7.004;2022-10-18T01:22:48;34.85;;;16.52;;
52564;SDS011;38460;53.106;7.004;2022-10-18T01:28:10;27.20;;;16.42;;
52564;SDS011;38460;53.106;7.004;2022-10-18T01:30:56;31.08;;;16.15;;
52564;SDS011;38460;53.106;7.004;2022-10-18T01:33:50;31.77;;;16.00;;
52564;SDS011;38460;53.106;7.004;2022-10-18T01:39:10;21.13;;;14.50;;
52564;SDS011;38460;53.106;7.004;2022-10-18T01:41:41;22.48;;;14.38;;
52564;SDS011;38460;53.106;7.004;2022-10-18T01:44:11;22.70;;;12.88;;
52564;SDS011;38460;53.106;7.004;2022-10-18T01:46:39;25.13;;;14.77;;
52564;SDS011;38460;53.106;7.004;2022-10-18T01:49:06;25.85;;;14.20;;
52564;SDS011;38460;53.106;7.004;2022-10-18T01:51:35;23.52;;;13.80;;
52564;SDS011;38460;53.106;7.004;2022-10-18T01:54:01;28.88;;;16.58;;
52564;SDS011;38460;53.106;7.004;2022-10-18T02:07:41;24.25;;;13.60;;
52564;SDS011;38460;53.106;7.004;2022-10-18T02:10:32;24.98;;;13.57;;
52564;SDS011;38460;53.106;7.004;2022-10-18T02:13:14;22.52;;;13.43;;
52564;SDS011;38460;53.106;7.004;2022-10-18T02:15:44;22.65;;;13.15;;
52564;SDS011;38460;53.106;7.004;2022-10-18T02:18:13;30.30;;;14.68;;
52564;SDS011;38460;53.106;7.004;2022-10-18T02:20:44;29.30;;;13.02;;
52564;SDS011;38460;53.106;7.004;2022-10-18T02:23:11;45.08;;;16.60;;
52564;SDS011;38460;53.106;7.004;2022-10-18T02:25:38;27.70;;;12.60;;
52564;SDS011;38460;53.106;7.004;2022-10-18T02:28:05;19.45;;;11.73;;
52564;SDS011;38460;53.106;7.004;2022-10-18T02:30:46;28.38;;;12.85;;
52564;SDS011;38460;53.106;7.004;2022-10-18T02:36:17;25.35;;;14.20;;
52564;SDS011;38460;53.106;7.004;2022-10-18T02:38:51;20.85;;;13.07;;
52564;SDS011;38460;53.106;7.004;2022-10-18T02:41:21;31.80;;;12.75;;
52564;SDS011;38460;53.106;7.004;2022-10-18T02:43:48;23.55;;;12.15;;
52564;SDS011;38460;53.106;7.004;2022-10-18T02:46:14;78.45;;;17.80;;
52564;SDS011;38460;53.106;7.004;2022-10-18T02:48:40;23.33;;;13.25;;
52564;SDS011;38460;53.106;7.004;2022-10-18T02:51:06;20.45;;;12.52;;
52564;SDS011;38460;53.106;7.004;2022-10-18T02:53:31;40.05;;;15.00;;
52564;SDS011;38460;53.106;7.004;2022-10-18T02:55:57;23.77;;;13.07;;
52564;SDS011;38460;53.106;7.004;2022-10-18T02:58:23;22.95;;;12.98;;
52564;SDS011;38460;53.106;7.004;2022-10-18T03:00:48;22.90;;;12.90;;
52564;SDS011;38460;53.106;7.004;2022-10-18T03:03:15;23.52;;;14.23;;
52564;SDS011;38460;53.106;7.004;2022-10-18T03:05:40;23.98;;;13.52;;
52564;SDS011;38460;53.106;7.004;2022-10-18T03:08:06;48.65;;;14.88;;
52564;SDS011;38460;53.106;7.004;2022-10-18T03:10:32;26.08;;;12.57;;
52564;SDS011;38460;53.106;7.004;2022-10-18T03:12:57;20.73;;;13.38;;
52564;SDS011;38460;53.106;7.004;2022-10-18T03:15:23;18.58;;;12.18;;
52564;SDS011;38460;53.106;7.004;2022-10-18T03:17:49;24.63;;;13.93;;
52564;SDS011;38460;53.106;7.004;2022-10-18T03:20:15;32.08;;;13.15;;
52564;SDS011;38460;53.106;7.004;2022-10-18T03:22:40;30.40;;;14.27;;
52564;SDS011;38460;53.106;7.004;2022-10-18T03:25:06;22.73;;;13.20;;
52564;SDS011;38460;53.106;7.004;2022-10-18T03:27:32;30.63;;;15.50;;
52564;SDS011;38460;53.106;7.004;2022-10-18T03:29:58;23.80;;;13.35;;
52564;SDS011;38460;53.106;7.004;2022-10-18T03:32:25;30.80;;;15.52;;
52564;SDS011;38460;53.106;7.004;2022-10-18T03:34:51;31.27;;;15.55;;
52564;SDS011;38460;53.106;7.004;2022-10-18T03:37:16;18.63;;;12.60;;
52564;SDS011;38460;53.106;7.004;2022-10-18T03:39:42;18.52;;;13.13;;
52564;SDS011;38460;53.106;7.004;2022-10-18T03:42:08;29.55;;;13.60;;
52564;SDS011;38460;53.106;7.004;2022-10-18T03:44:33;27.85;;;13.68;;
52564;SDS011;38460;53.106;7.004;2022-10-18T03:46:59;27.25;;;14.75;;
52564;SDS011;38460;53.106;7.004;2022-10-18T03:49:25;26.55;;;13.45;;
52564;SDS011;38460;53.106;7.004;2022-10-18T03:51:51;26.42;;;15.63;;
52564;SDS011;38460;53.106;7.004;2022-10-18T03:54:16;29.80;;;15.82;;
52564;SDS011;38460;53.106;7.004;2022-10-18T03:56:42;23.17;;;14.20;;
52564;SDS011;38460;53.106;7.004;2022-10-18T03:59:08;25.88;;;14.18;;
52564;SDS011;38460;53.106;7.004;2022-10-18T04:01:34;33.97;;;14.60;;
52564;SDS011;38460;53.106;7.004;2022-10-18T04:03:59;23.88;;;15.48;;
52564;SDS011;38460;53.106;7.004;2022-10-18T04:06:25;24.15;;;14.82;;
52564;SDS011;38460;53.106;7.004;2022-10-18T04:08:51;28.20;;;14.48;;
52564;SDS011;38460;53.106;7.004;2022-10-18T04:11:16;53.45;;;17.92;;
52564;SDS011;38460;53.106;7.004;2022-10-18T04:13:42;62.35;;;17.50;;
52564;SDS011;38460;53.106;7.004;2022-10-18T04:16:08;31.27;;;16.65;;
52564;SDS011;38460;53.106;7.004;2022-10-18T04:18:33;67.95;;;18.15;;
52564;SDS011;38460;53.106;7.004;2022-10-18T04:20:59;25.83;;;13.93;;
52564;SDS011;38460;53.106;7.004;2022-10-18T04:23:25;22.48;;;13.35;;
52564;SDS011;38460;53.106;7.004;2022-10-18T04:25:51;26.35;;;13.57;;
52564;SDS011;38460;53.106;7.004;2022-10-18T04:28:16;83.35;;;21.02;;
52564;SDS011;38460;53.106;7.004;2022-10-18T04:30:42;35.22;;;14.95;;
52564;SDS011;38460;53.106;7.004;2022-10-18T04:33:12;37.22;;;13.55;;
52564;SDS011;38460;53.106;7.004;2022-10-18T04:35:38;24.17;;;12.70;;
52564;SDS011;38460;53.106;7.004;2022-10-18T04:38:04;47.58;;;13.95;;
52564;SDS011;38460;53.106;7.004;2022-10-18T04:40:29;25.80;;;12.30;;
52564;SDS011;38460;53.106;7.004;2022-10-18T04:42:55;51.53;;;16.60;;
52564;SDS011;38460;53.106;7.004;2022-10-18T04:45:21;26.00;;;12.88;;
52564;SDS011;38460;53.106;7.004;2022-10-18T04:47:46;32.70;;;13.77;;
52564;SDS011;38460;53.106;7.004;2022-10-18T04:50:12;27.63;;;12.82;;
52564;SDS011;38460;53.106;7.004;2022-10-18T04:52:38;49.75;;;14.75;;
52564;SDS011;38460;53.106;7.004;2022-10-18T04:55:04;19.95;;;11.32;;
52564;SDS011;38460;53.106;7.004;2022-10-18T04:57:30;21.70;;;10.93;;
52564;SDS011;38460;53.106;7.004;2022-10-18T04:59:55;24.73;;;12.27;;
52564;SDS011;38460;53.106;7.004;2022-10-18T05:02:21;20.63;;;12.07;;
52564;SDS011;38460;53.106;7.004;2022-10-18T05:04:47;23.70;;;11.75;;
52564;SDS011;38460;53.106;7.004;2022-10-18T05:07:12;21.40;;;11.48;;
52564;SDS011;38460;53.106;7.004;2022-10-18T05:09:38;19.40;;;11.32;;
52564;SDS011;38460;53.106;7.004;2022-10-18T05:12:04;35.10;;;12.20;;
52564;SDS011;38460;53.106;7.004;2022-10-18T05:14:30;18.42;;;11.60;;
52564;SDS011;38460;53.106;7.004;2022-10-18T05:16:55;20.83;;;12.57;;
52564;SDS011;38460;53.106;7.004;2022-10-18T05:19:21;24.85;;;12.25;;
52564;SDS011;38460;53.106;7.004;2022-10-18T05:21:47;27.05;;;12.15;;
52564;SDS011;38460;53.106;7.004;2022-10-18T05:24:12;18.30;;;11.02;;
52564;SDS011;38460;53.106;7.004;2022-10-18T05:26:38;54.58;;;15.40;;
52564;SDS011;38460;53.106;7.004;2022-10-18T05:29:04;30.98;;;14.20;;
52564;SDS011;38460;53.106;7.004;2022-10-18T05:31:30;28.77;;;13.45;;
52564;SDS011;38460;53.106;7.004;2022-10-18T05:33:55;29.77;;;15.13;;
52564;SDS011;38460;53.106;7.004;2022-10-18T05:36:21;28.05;;;13.95;;
52564;SDS011;38460;53.106;7.004;2022-10-18T05:38:47;32.60;;;15.13;;
52564;SDS011;38460;53.106;7.004;2022-10-18T05:41:13;30.35;;;14.18;;
52564;SDS011;38460;53.106;7.004;2022-10-18T05:43:39;31.48;;;14.25;;
52564;SDS011;38460;53.106;7.004;2022-10-18T05:46:05;48.65;;;15.63;;
52564;SDS011;38460;53.106;7.004;2022-10-18T05:48:32;28.33;;;11.80;;
52564;SDS011;38460;53.106;7.004;2022-10-18T05:50:59;73.75;;;17.80;;
52564;SDS011;38460;53.106;7.004;2022-10-18T05:53:25;22.10;;;12.95;;
52564;SDS011;38460;53.106;7.004;2022-10-18T05:55:51;25.02;;;12.20;;
52564;SDS011;38460;53.106;7.004;2022-10-18T05:58:17;24.85;;;12.00;;
52564;SDS011;38460;53.106;7.004;2022-10-18T06:00:42;20.25;;;12.02;;
52564;SDS011;38460;53.106;7.004;2022-10-18T06:03:08;56.67;;;14.43;;
52564;SDS011;38460;53.106;7.004;2022-10-18T06:05:35;24.38;;;12.00;;
52564;SDS011;38460;53.106;7.004;2022-10-18T06:08:00;31.08;;;12.65;;
52564;SDS011;38460;53.106;7.004;2022-10-18T06:10:26;122.20;;;19.08;;
52564;SDS011;38460;53.106;7.004;2022-10-18T06:12:52;21.85;;;10.93;;
52564;SDS011;38460;53.106;7.004;2022-10-18T06:15:18;32.75;;;11.10;;
52564;SDS011;38460;53.106;7.004;2022-10-18T06:17:44;136.35;;;21.42;;
52564;SDS011;38460;53.106;7.004;2022-10-18T06:20:09;23.10;;;10.77;;
52564;SDS011;38460;53.106;7.004;2022-10-18T06:22:35;36.40;;;11.98;;
52564;SDS011;38460;53.106;7.004;2022-10-18T06:25:01;33.13;;;11.52;;
52564;SDS011;38460;53.106;7.004;2022-10-18T06:27:27;20.30;;;11.00;;
52564;SDS011;38460;53.106;7.004;2022-10-18T06:29:52;22.15;;;10.50;;
52564;SDS011;38460;53.106;7.004;2022-10-18T06:32:18;30.55;;;11.07;;
52564;SDS011;38460;53.106;7.004;2022-10-18T06:34:44;100.07;;;16.20;;
52564;SDS011;38460;53.106;7.004;2022-10-18T06:37:09;22.30;;;10.55;;
52564;SDS011;38460;53.106;7.004;2022-10-18T06:39:35;22.05;;;10.13;;
52564;SDS011;38460;53.106;7.004;2022-10-18T06:42:01;18.77;;;9.13;;
52564;SDS011;38460;53.106;7.004;2022-10-18T06:44:26;40.33;;;11.95;;
52564;SDS011;38460;53.106;7.004;2022-10-18T06:46:52;40.88;;;11.68;;
52564;SDS011;38460;53.106;7.004;2022-10-18T06:49:18;29.13;;;12.15;;
52564;SDS011;38460;53.106;7.004;2022-10-18T06:51:44;50.20;;;12.98;;
52564;SDS011;38460;53.106;7.004;2022-10-18T06:54:10;39.63;;;12.85;;
52564;SDS011;38460;53.106;7.004;2022-10-18T06:56:36;40.80;;;13.50;;
52564;SDS011;38460;53.106;7.004;2022-10-18T06:59:03;25.73;;;11.38;;
52564;SDS011;38460;53.106;7.004;2022-10-18T07:01:29;40.30;;;10.88;;
52564;SDS011;38460;53.106;7.004;2022-10-18T07:03:55;23.90;;;9.95;;
52564;SDS011;38460;53.106;7.004;2022-10-18T07:06:21;18.25;;;8.93;;
52564;SDS011;38460;53.106;7.004;2022-10-18T07:08:48;76.57;;;12.23;;
52564;SDS011;38460;53.106;7.004;2022-10-18T07:11:18;16.30;;;8.65;;
52564;SDS011;38460;53.106;7.004;2022-10-18T07:13:45;18.88;;;9.13;;
52564;SDS011;38460;53.106;7.004;2022-10-18T07:16:15;25.15;;;9.85;;
52564;SDS011;38460;53.106;7.004;2022-10-18T07:18:43;32.07;;;10.67;;
52564;SDS011;38460;53.106;7.004;2022-10-18T07:21:11;27.73;;;10.98;;
52564;SDS011;38460;53.106;7.004;2022-10-18T07:23:39;21.15;;;9.98;;
52564;SDS011;38460;53.106;7.004;2022-10-18T07:26:14;18.90;;;8.73;;
52564;SDS011;38460;53.106;7.004;2022-10-18T07:28:42;18.27;;;8.25;;
52564;SDS011;38460;53.106;7.004;2022-10-18T07:31:09;11.40;;;6.68;;
52564;SDS011;38460;53.106;7.004;2022-10-18T07:33:35;38.35;;;10.38;;
52564;SDS011;38460;53.106;7.004;2022-10-18T07:36:04;22.55;;;8.48;;
52564;SDS011;38460;53.106;7.004;2022-10-18T07:38:32;14.43;;;6.63;;
52564;SDS011;38460;53.106;7.004;2022-10-18T07:40:58;13.68;;;6.88;;
52564;SDS011;38460;53.106;7.004;2022-10-18T07:43:25;13.68;;;7.10;;
52564;SDS011;38460;53.106;7.004;2022-10-18T07:45:52;35.85;;;9.05;;
52564;SDS011;38460;53.106;7.004;2022-10-18T07:48:18;18.05;;;7.32;;
52564;SDS011;38460;53.106;7.004;2022-10-18T07:50:44;15.18;;;7.60;;
52564;SDS011;38460;53.106;7.004;2022-10-18T07:53:10;41.10;;;8.93;;
52564;SDS011;38460;53.106;7.004;2022-10-18T07:55:35;19.92;;;8.80;;
52564;SDS011;38460;53.106;7.004;2022-10-18T07:58:01;24.85;;;9.25;;
52564;SDS011;38460;53.106;7.004;2022-10-18T08:00:27;21.70;;;8.10;;
52564;SDS011;38460;53.106;7.004;2022-10-18T08:02:56;16.65;;;7.53;;
52564;SDS011;38460;53.106;7.004;2022-10-18T08:05:23;22.73;;;8.32;;
52564;SDS011;38460;53.106;7.004;2022-10-18T08:07:51;15.20;;;8.10;;
52564;SDS011;38460;53.106;7.004;2022-10-18T08:10:17;24.90;;;9.13;;
52564;SDS011;38460;53.106;7.004;2022-10-18T08:12:43;15.35;;;8.38;;
52564;SDS011;38460;53.106;7.004;2022-10-18T08:15:09;18.67;;;8.50;;
52564;SDS011;38460;53.106;7.004;2022-10-18T08:17:35;17.20;;;8.43;;
52564;SDS011;38460;53.106;7.004;2022-10-18T08:20:01;16.45;;;8.77;;
52564;SDS011;38460;53.106;7.004;2022-10-18T08:22:26;18.00;;;8.57;;
52564;SDS011;38460;53.106;7.004;2022-10-18T08:24:52;13.55;;;7.63;;
52564;SDS011;38460;53.106;7.004;2022-10-18T08:27:18;19.80;;;8.52;;
52564;SDS011;38460;53.106;7.004;2022-10-18T08:29:43;15.75;;;8.70;;
52564;SDS011;38460;53.106;7.004;2022-10-18T08:32:09;16.98;;;8.85;;
52564;SDS011;38460;53.106;7.004;2022-10-18T08:34:35;28.90;;;10.13;;
52564;SDS011;38460;53.106;7.004;2022-10-18T08:37:01;20.50;;;10.07;;
52564;SDS011;38460;53.106;7.004;2022-10-18T08:39:27;21.40;;;8.57;;
52564;SDS011;38460;53.106;7.004;2022-10-18T08:44:54;15.88;;;8.55;;
52564;SDS011;38460;53.106;7.004;2022-10-18T08:47:22;16.98;;;8.73;;
52564;SDS011;38460;53.106;7.004;2022-10-18T08:50:03;17.30;;;8.55;;
52564;SDS011;38460;53.106;7.004;2022-10-18T08:57:49;16.67;;;9.38;;
52564;SDS011;38460;53.106;7.004;2022-10-18T09:00:19;17.42;;;9.20;;
52564;SDS011;38460;53.106;7.004;2022-10-18T09:03:02;17.17;;;8.98;;
52564;SDS011;38460;53.106;7.004;2022-10-18T09:19:24;15.07;;;8.23;;
52564;SDS011;38460;53.106;7.004;2022-10-18T09:21:57;20.67;;;9.45;;
52564;SDS011;38460;53.106;7.004;2022-10-18T09:36:31;14.60;;;7.97;;
52564;SDS011;38460;53.106;7.004;2022-10-18T09:39:02;16.80;;;6.57;;
52564;SDS011;38460;53.106;7.004;2022-10-18T09:44:19;13.20;;;6.47;;
52564;SDS011;38460;53.106;7.004;2022-10-18T09:46:49;11.88;;;5.90;;
52564;SDS011;38460;53.106;7.004;2022-10-18T09:49:27;11.65;;;6.00;;
52564;SDS011;38460;53.106;7.004;2022-10-18T09:51:56;12.52;;;5.55;;
52564;SDS011;38460;53.106;7.004;2022-10-18T09:54:30;15.27;;;5.32;;
52564;SDS011;38460;53.106;7.004;2022-10-18T09:59:53;10.57;;;4.30;;
52564;SDS011;38460;53.106;7.004;2022-10-18T10:02:20;15.63;;;3.97;;
52564;SDS011;38460;53.106;7.004;2022-10-18T10:04:47;16.65;;;4.10;;
52564;SDS011;38460;53.106;7.004;2022-10-18T10:07:18;17.60;;;4.80;;
52564;SDS011;38460;53.106;7.004;2022-10-18T10:09:56;10.05;;;3.10;;
52564;SDS011;38460;53.106;7.004;2022-10-18T10:12:40;11.32;;;3.55;;
52564;SDS011;38460;53.106;7.004;2022-10-18T10:17:52;13.18;;;2.88;;
52564;SDS011;38460;53.106;7.004;2022-10-18T10:20:42;11.15;;;2.92;;
52564;SDS011;38460;53.106;7.004;2022-10-18T10:23:20;9.13;;;3.53;;
52564;SDS011;38460;53.106;7.004;2022-10-18T10:28:53;11.45;;;2.63;;
52564;SDS011;38460;53.106;7.004;2022-10-18T10:36:36;9.55;;;3.00;;
52564;SDS011;38460;53.106;7.004;2022-10-18T10:39:12;11.05;;;3.17;;
52564;SDS011;38460;53.106;7.004;2022-10-18T10:41:42;10.35;;;2.85;;
52564;SDS011;38460;53.106;7.004;2022-10-18T10:44:17;11.13;;;2.83;;
52564;SDS011;38460;53.106;7.004;2022-10-18T10:46:44;9.52;;;2.70;;
52564;SDS011;38460;53.106;7.004;2022-10-18T10:49:22;13.07;;;3.03;;
52564;SDS011;38460;53.106;7.004;2022-10-18T10:51:58;11.40;;;3.00;;
52564;SDS011;38460;53.106;7.004;2022-10-18T10:54:27;8.35;;;2.40;;
52564;SDS011;38460;53.106;7.004;2022-10-18T10:57:01;7.68;;;2.40;;
52564;SDS011;38460;53.106;7.004;2022-10-18T11:04:39;8.30;;;2.38;;
52564;SDS011;38460;53.106;7.004;2022-10-18T11:14:50;4.50;;;1.95;;
52564;SDS011;38460;53.106;7.004;2022-10-18T11:20:22;8.88;;;2.05;;
52564;SDS011;38460;53.106;7.004;2022-10-18T11:23:11;10.10;;;2.38;;
52564;SDS011;38460;53.106;7.004;2022-10-18T11:25:51;11.77;;;2.13;;
52564;SDS011;38460;53.106;7.004;2022-10-18T11:33:52;11.25;;;2.40;;
52564;SDS011;38460;53.106;7.004;2022-10-18T11:39:07;7.97;;;1.83;;
52564;SDS011;38460;53.106;7.004;2022-10-18T11:41:37;7.63;;;1.80;;
52564;SDS011;38460;53.106;7.004;2022-10-18T11:49:28;8.55;;;2.05;;
52564;SDS011;38460;53.106;7.004;2022-10-18T11:57:35;8.90;;;2.08;;
52564;SDS011;38460;53.106;7.004;2022-10-18T12:00:26;12.13;;;2.30;;
52564;SDS011;38460;53.106;7.004;2022-10-18T12:03:24;4.77;;;1.93;;
52564;SDS011;38460;53.106;7.004;2022-10-18T12:06:09;7.72;;;2.17;;
52564;SDS011;38460;53.106;7.004;2022-10-18T12:08:40;10.48;;;2.28;;
52564;SDS011;38460;53.106;7.004;2022-10-18T12:14:44;7.25;;;1.90;;
52564;SDS011;38460;53.106;7.004;2022-10-18T12:19:54;8.70;;;1.98;;
52564;SDS011;38460;53.106;7.004;2022-10-18T12:25:01;9.32;;;2.35;;
52564;SDS011;38460;53.106;7.004;2022-10-18T12:27:42;8.85;;;1.88;;
52564;SDS011;38460;53.106;7.004;2022-10-18T12:30:35;6.85;;;1.77;;
52564;SDS011;38460;53.106;7.004;2022-10-18T12:33:12;7.35;;;1.92;;
52564;SDS011;38460;53.106;7.004;2022-10-18T12:36:11;7.57;;;2.15;;
52564;SDS011;38460;53.106;7.004;2022-10-18T12:38:31;10.45;;;2.53;;
52564;SDS011;38460;53.106;7.004;2022-10-18T12:41:00;8.55;;;2.42;;
52564;SDS011;38460;53.106;7.004;2022-10-18T12:43:28;7.57;;;2.20;;
52564;SDS011;38460;53.106;7.004;2022-10-18T12:46:00;6.90;;;1.98;;
52564;SDS011;38460;53.106;7.004;2022-10-18T12:48:29;13.65;;;2.35;;
52564;SDS011;38460;53.106;7.004;2022-10-18T12:51:04;9.15;;;1.90;;
52564;SDS011;38460;53.106;7.004;2022-10-18T12:53:38;8.90;;;2.40;;
52564;SDS011;38460;53.106;7.004;2022-10-18T12:56:39;6.88;;;2.00;;
52564;SDS011;38460;53.106;7.004;2022-10-18T13:09:36;7.40;;;2.00;;
52564;SDS011;38460;53.106;7.004;2022-10-18T13:34:41;6.90;;;1.63;;
52564;SDS011;38460;53.106;7.004;2022-10-18T13:39:33;7.78;;;1.75;;
52564;SDS011;38460;53.106;7.004;2022-10-18T13:44:26;7.68;;;1.90;;
52564;SDS011;38460;53.106;7.004;2022-10-18T14:01:04;11.35;;;2.03;;
52564;SDS011;38460;53.106;7.004;2022-10-18T14:07:05;8.63;;;2.17;;
52564;SDS011;38460;53.106;7.004;2022-10-18T14:09:43;8.18;;;1.90;;
52564;SDS011;38460;53.106;7.004;2022-10-18T14:12:20;6.68;;;1.83;;
52564;SDS011;38460;53.106;7.004;2022-10-18T14:14:52;7.95;;;1.98;;
52564;SDS011;38460;53.106;7.004;2022-10-18T14:22:27;9.02;;;2.10;;
52564;SDS011;38460;53.106;7.004;2022-10-18T14:25:16;11.93;;;2.63;;
52564;SDS011;38460;53.106;7.004;2022-10-18T14:27:44;15.82;;;2.63;;
52564;SDS011;38460;53.106;7.004;2022-10-18T14:30:15;8.27;;;2.25;;
52564;SDS011;38460;53.106;7.004;2022-10-18T14:32:43;9.88;;;2.30;;
52564;SDS011;38460;53.106;7.004;2022-10-18T14:35:15;11.85;;;2.95;;
52564;SDS011;38460;53.106;7.004;2022-10-18T14:37:44;12.05;;;2.33;;
52564;SDS011;38460;53.106;7.004;2022-10-18T14:40:26;7.07;;;2.00;;
52564;SDS011;38460;53.106;7.004;2022-10-18T14:43:18;6.95;;;2.10;;
52564;SDS011;38460;53.106;7.004;2022-10-18T14:45:44;7.75;;;2.42;;
52564;SDS011;38460;53.106;7.004;2022-10-18T14:50:38;8.77;;;2.28;;
52564;SDS011;38460;53.106;7.004;2022-10-18T14:53:06;8.80;;;2.58;;
52564;SDS011;38460;53.106;7.004;2022-10-18T14:55:33;7.68;;;2.40;;
52564;SDS011;38460;53.106;7.004;2022-10-18T14:58:00;9.52;;;2.25;;
52564;SDS011;38460;53.106;7.004;2022-10-18T15:00:34;9.48;;;2.55;;
52564;SDS011;38460;53.106;7.004;2022-10-18T15:03:02;12.10;;;2.55;;
52564;SDS011;38460;53.106;7.004;2022-10-18T15:05:29;8.35;;;2.28;;
52564;SDS011;38460;53.106;7.004;2022-10-18T15:07:55;9.85;;;2.20;;
52564;SDS011;38460;53.106;7.004;2022-10-18T15:10:28;10.32;;;2.38;;
52564;SDS011;38460;53.106;7.004;2022-10-18T15:12:56;10.82;;;2.38;;
52564;SDS011;38460;53.106;7.004;2022-10-18T15:15:28;9.40;;;2.17;;
52564;SDS011;38460;53.106;7.004;2022-10-18T15:17:56;7.97;;;1.85;;
52564;SDS011;38460;53.106;7.004;2022-10-18T15:20:27;16.35;;;3.13;;
52564;SDS011;38460;53.106;7.004;2022-10-18T15:25:58;8.52;;;2.17;;
52564;SDS011;38460;53.106;7.004;2022-10-18T15:28:30;7.85;;;2.55;;
52564;SDS011;38460;53.106;7.004;2022-10-18T15:31:00;11.05;;;2.50;;
52564;SDS011;38460;53.106;7.004;2022-10-18T15:33:26;8.55;;;2.45;;
52564;SDS011;38460;53.106;7.004;2022-10-18T15:36:06;11.02;;;2.90;;
52564;SDS011;38460;53.106;7.004;2022-10-18T15:38:36;10.38;;;2.67;;
52564;SDS011;38460;53.106;7.004;2022-10-18T15:41:34;9.35;;;2.30;;
52564;SDS011;38460;53.106;7.004;2022-10-18T15:44:45;14.32;;;2.58;;
52564;SDS011;38460;53.106;7.004;2022-10-18T15:58:03;8.90;;;2.05;;
52564;SDS011;38460;53.106;7.004;2022-10-18T16:00:35;9.35;;;2.17;;
52564;SDS011;38460;53.106;7.004;2022-10-18T16:03:01;6.75;;;2.20;;
52564;SDS011;38460;53.106;7.004;2022-10-18T16:05:26;8.10;;;2.13;;
52564;SDS011;38460;53.106;7.004;2022-10-18T16:07:52;9.45;;;2.08;;
52564;SDS011;38460;53.106;7.004;2022-10-18T16:10:19;10.05;;;2.25;;
52564;SDS011;38460;53.106;7.004;2022-10-18T16:12:44;14.02;;;2.00;;
52564;SDS011;38460;53.106;7.004;2022-10-18T16:15:10;7.03;;;2.53;;
52564;SDS011;38460;53.106;7.004;2022-10-18T16:17:36;7.90;;;2.60;;
52564;SDS011;38460;53.106;7.004;2022-10-18T16:20:02;11.05;;;2.13;;
52564;SDS011;38460;53.106;7.004;2022-10-18T16:22:28;6.22;;;1.90;;
52564;SDS011;38460;53.106;7.004;2022-10-18T16:24:54;8.77;;;2.17;;
52564;SDS011;38460;53.106;7.004;2022-10-18T16:27:19;9.73;;;1.80;;
52564;SDS011;38460;53.106;7.004;2022-10-18T16:29:46;7.03;;;1.60;;
52564;SDS011;38460;53.106;7.004;2022-10-18T16:32:11;7.30;;;1.85;;
52564;SDS011;38460;53.106;7.004;2022-10-18T16:34:37;8.25;;;2.20;;
52564;SDS011;38460;53.106;7.004;2022-10-18T16:37:03;9.50;;;1.98;;
52564;SDS011;38460;53.106;7.004;2022-10-18T16:39:29;4.30;;;1.70;;
52564;SDS011;38460;53.106;7.004;2022-10-18T16:41:58;10.88;;;2.00;;
52564;SDS011;38460;53.106;7.004;2022-10-18T16:44:24;8.70;;;1.90;;
52564;SDS011;38460;53.106;7.004;2022-10-18T16:46:50;7.43;;;1.90;;
52564;SDS011;38460;53.106;7.004;2022-10-18T16:49:25;5.95;;;2.10;;
52564;SDS011;38460;53.106;7.004;2022-10-18T16:51:52;4.55;;;1.73;;
52564;SDS011;38460;53.106;7.004;2022-10-18T16:54:18;8.00;;;2.38;;
52564;SDS011;38460;53.106;7.004;2022-10-18T16:56:44;9.40;;;2.38;;
52564;SDS011;38460;53.106;7.004;2022-10-18T16:59:33;12.57;;;2.45;;
52564;SDS011;38460;53.106;7.004;2022-10-18T17:01:57;7.15;;;2.08;;
52564;SDS011;38460;53.106;7.004;2022-10-18T17:04:29;10.05;;;2.28;;
52564;SDS011;38460;53.106;7.004;2022-10-18T17:06:55;5.25;;;1.85;;
52564;SDS011;38460;53.106;7.004;2022-10-18T17:09:22;6.55;;;2.33;;
52564;SDS011;38460;53.106;7.004;2022-10-18T17:11:48;6.03;;;1.75;;
52564;SDS011;38460;53.106;7.004;2022-10-18T17:14:14;8.00;;;1.55;;
52564;SDS011;38460;53.106;7.004;2022-10-18T17:16:39;6.90;;;1.60;;
52564;SDS011;38460;53.106;7.004;2022-10-18T17:19:06;13.80;;;2.80;;
52564;SDS011;38460;53.106;7.004;2022-10-18T17:21:34;21.48;;;2.92;;
52564;SDS011;38460;53.106;7.004;2022-10-18T17:24:00;12.93;;;3.53;;
52564;SDS011;38460;53.106;7.004;2022-10-18T17:26:28;16.35;;;2.05;;
52564;SDS011;38460;53.106;7.004;2022-10-18T17:28:55;11.70;;;1.90;;
52564;SDS011;38460;53.106;7.004;2022-10-18T17:31:23;6.15;;;1.83;;
52564;SDS011;38460;53.106;7.004;2022-10-18T17:33:49;13.40;;;2.45;;
52564;SDS011;38460;53.106;7.004;2022-10-18T17:36:15;8.80;;;1.95;;
52564;SDS011;38460;53.106;7.004;2022-10-18T17:38:40;7.72;;;1.77;;
52564;SDS011;38460;53.106;7.004;2022-10-18T17:41:07;16.65;;;2.47;;
52564;SDS011;38460;53.106;7.004;2022-10-18T17:43:35;27.02;;;4.45;;
52564;SDS011;38460;53.106;7.004;2022-10-18T17:46:01;7.55;;;2.35;;
52564;SDS011;38460;53.106;7.004;2022-10-18T17:48:28;8.02;;;2.00;;
52564;SDS011;38460;53.106;7.004;2022-10-18T17:50:54;6.40;;;1.60;;
52564;SDS011;38460;53.106;7.004;2022-10-18T17:53:20;6.60;;;1.67;;
52564;SDS011;38460;53.106;7.004;2022-10-18T17:55:49;20.92;;;2.83;;
52564;SDS011;38460;53.106;7.004;2022-10-18T17:58:15;6.13;;;1.65;;
52564;SDS011;38460;53.106;7.004;2022-10-18T18:00:40;11.13;;;2.13;;
52564;SDS011;38460;53.106;7.004;2022-10-18T18:03:06;5.80;;;1.80;;
52564;SDS011;38460;53.106;7.004;2022-10-18T18:05:32;11.82;;;2.47;;
52564;SDS011;38460;53.106;7.004;2022-10-18T18:07:59;5.35;;;1.50;;